createdAt,value
2022-08-05T00:01:20.873Z,101465.50
2022-08-05T00:04:00.188Z,101469.56
2022-08-05T00:06:33.209Z,101461.25
2022-08-05T00:09:20.256Z,101453.75
2022-08-05T00:12:06.991Z,101451.06
2022-08-05T00:14:51.718Z,101448.34
2022-08-05T00:17:37.953Z,101441.31
2022-08-05T00:20:29.101Z,101422.44
2022-08-05T00:23:12.481Z,101417.63
2022-08-05T00:25:46.139Z,101408.50
2022-08-05T00:28:32.922Z,101409.03
2022-08-05T00:31:12.914Z,101398.84
2022-08-05T00:34:54.891Z,101381.63
2022-08-05T00:37:09.800Z,101379.19
2022-08-05T00:39:22.374Z,101388.09
2022-08-05T00:41:55.521Z,101398.91
2022-08-05T00:44:41.513Z,101402.66
2022-08-05T00:47:08.860Z,101394.53
2022-08-05T00:49:49.351Z,101399.59
2022-08-05T00:52:28.534Z,101395.00
2022-08-05T00:54:57.628Z,101363.13
2022-08-05T00:57:38.222Z,101342.09
2022-08-05T01:00:14.153Z,101339.34
2022-08-05T01:02:44.403Z,101364.16
2022-08-05T01:05:12.786Z,101358.75
2022-08-05T01:08:40.576Z,101340.41
2022-08-05T01:10:40.640Z,101370.09
2022-08-05T01:13:58.788Z,101378.13
2022-08-05T01:16:27.169Z,101359.75
2022-08-05T01:19:03.878Z,101340.28
2022-08-05T01:22:06.968Z,101285.78
2022-08-05T01:25:01.696Z,101225.13
2022-08-05T01:28:15.552Z,101211.59
2022-08-05T01:30:53.765Z,101211.38
2022-08-05T01:33:29.555Z,101236.63
2022-08-05T01:36:16.293Z,101261.41
2022-08-05T01:38:48.607Z,101291.81
2022-08-05T01:41:22.514Z,101290.19
2022-08-05T01:43:56.367Z,101296.69
2022-08-05T01:46:42.668Z,101300.47
2022-08-05T01:49:23.594Z,101320.63
2022-08-05T01:51:58.747Z,101322.25
2022-08-05T01:54:46.143Z,101324.94
2022-08-05T01:58:10.131Z,101330.91
2022-08-05T02:00:12.417Z,101336.22
2022-08-05T02:02:53.577Z,101331.13
2022-08-05T02:05:28.672Z,101338.94
2022-08-05T02:08:01.352Z,101344.81
2022-08-05T02:10:36.988Z,101358.19
2022-08-05T02:13:17.533Z,101370.44
2022-08-05T02:15:53.977Z,101361.22
2022-08-05T02:18:34.842Z,101364.38
2022-08-05T02:21:14.735Z,101367.47
2022-08-05T02:23:48.523Z,101380.88
2022-08-05T02:26:26.645Z,101381.63
2022-08-05T02:28:56.486Z,101374.84
2022-08-05T02:31:34.965Z,101373.41
2022-08-05T02:34:09.342Z,101380.13
2022-08-05T02:36:42.680Z,101370.66
2022-08-05T02:39:12.976Z,101367.19
2022-08-05T02:42:01.347Z,101368.22
2022-08-05T02:44:32.462Z,101357.94
2022-08-05T02:47:02.806Z,101364.66
2022-08-05T02:49:40.325Z,101348.75
2022-08-05T02:52:25.871Z,101350.06
2022-08-05T02:55:01.876Z,101354.06
2022-08-05T02:58:09.235Z,101343.81
2022-08-05T03:00:21.677Z,101337.31
2022-08-05T03:02:52.977Z,101342.94
2022-08-05T03:05:21.872Z,101348.56
2022-08-05T03:08:11.402Z,101350.94
2022-08-05T03:10:42.112Z,101348.00
2022-08-05T03:13:28.527Z,101346.13
2022-08-05T03:16:16.227Z,101355.00
2022-08-05T03:18:48.720Z,101366.34
2022-08-05T03:21:16.242Z,101364.69
2022-08-05T03:23:45.624Z,101363.09
2022-08-05T03:26:31.367Z,101354.19
2022-08-05T03:28:59.842Z,101350.69
2022-08-05T03:31:55.608Z,101349.63
2022-08-05T03:34:16.971Z,101348.88
2022-08-05T03:36:44.347Z,101347.31
2022-08-05T03:39:13.159Z,101344.94
2022-08-05T03:41:47.747Z,101344.13
2022-08-05T03:44:20.215Z,101335.50
2022-08-05T03:46:47.839Z,101353.25
2022-08-05T03:49:17.582Z,101358.91
2022-08-05T03:52:38.331Z,101359.94
2022-08-05T03:55:00.074Z,101353.19
2022-08-05T03:57:44.670Z,101355.66
2022-08-05T04:00:16.271Z,101366.41
2022-08-05T04:02:57.660Z,101376.63
2022-08-05T04:05:33.696Z,101372.53
2022-08-05T04:08:05.872Z,101377.34
2022-08-05T04:10:45.092Z,101380.28
2022-08-05T04:13:13.031Z,101384.63
2022-08-05T04:16:02.830Z,101392.69
2022-08-05T04:18:28.864Z,101389.19
2022-08-05T04:20:59.149Z,101396.16
2022-08-05T04:24:05.104Z,101399.69
2022-08-05T04:26:17.460Z,101401.63
2022-08-05T04:28:50.817Z,101403.09
2022-08-05T04:31:19.387Z,101414.19
2022-08-05T04:34:18.549Z,101411.22
2022-08-05T04:36:44.763Z,101417.91
2022-08-05T04:39:17.483Z,101406.09
2022-08-05T04:41:45.948Z,101396.78
2022-08-05T04:44:20.993Z,101398.22
2022-08-05T04:46:51.901Z,101395.59
2022-08-05T04:49:24.754Z,101387.28
2022-08-05T04:52:07.747Z,101384.31
2022-08-05T04:54:35.195Z,101378.44
2022-08-05T04:57:02.518Z,101383.00
2022-08-05T04:59:38.934Z,101373.84
2022-08-05T05:02:36.305Z,101377.13
2022-08-05T05:05:01.837Z,101369.84
2022-08-05T05:07:32.691Z,101389.00
2022-08-05T05:10:06.460Z,101401.97
2022-08-05T05:12:34.144Z,101420.84
2022-08-05T05:15:10.781Z,101427.53
2022-08-05T05:17:57.083Z,101418.06
2022-08-05T05:20:28.747Z,101420.22
2022-08-05T05:22:58.414Z,101428.78
2022-08-05T05:25:40.432Z,101425.59
2022-08-05T05:28:09.294Z,101422.31
2022-08-05T05:30:36.996Z,101423.69
2022-08-05T05:33:16.240Z,101412.69
2022-08-05T05:35:45.857Z,101395.50
2022-08-05T05:38:22.649Z,101375.16
2022-08-05T05:40:55.844Z,101359.69
2022-08-05T05:43:54.546Z,101363.03
2022-08-05T05:46:15.776Z,101380.41
2022-08-05T05:48:47.888Z,101395.38
2022-08-05T05:51:21.197Z,101419.38
2022-08-05T05:53:58.306Z,101426.91
2022-08-05T05:56:32.307Z,101418.53
2022-08-05T05:59:03.452Z,101407.91
2022-08-05T06:01:37.382Z,101401.97
2022-08-05T06:04:07.569Z,101386.94
2022-08-05T06:06:35.543Z,101397.75
2022-08-05T06:09:05.747Z,101401.53
2022-08-05T06:11:35.342Z,101407.19
2022-08-05T06:14:06.950Z,101415.28
2022-08-05T06:16:37.202Z,101417.66
2022-08-05T06:19:07.566Z,101407.38
2022-08-05T06:21:38.709Z,101408.69
2022-08-05T06:24:11.959Z,101411.66
2022-08-05T06:26:51.478Z,101417.31
2022-08-05T06:29:25.286Z,101410.31
2022-08-05T06:32:21.220Z,101417.09
2022-08-05T06:34:56.059Z,101436.56
2022-08-05T06:37:52.276Z,101443.34
2022-08-05T06:40:18.570Z,101456.50
2022-08-05T06:42:51.991Z,101438.16
2022-08-05T06:45:44.579Z,101426.78
2022-08-05T06:48:36.207Z,101419.78
2022-08-05T06:50:57.252Z,101426.28
2022-08-05T06:53:28.230Z,101430.34
2022-08-05T06:55:58.300Z,101425.28
2022-08-05T06:58:35.023Z,101430.41
2022-08-05T07:01:06.403Z,101435.84
2022-08-05T07:03:34.915Z,101442.63
2022-08-05T07:06:05.615Z,101440.44
2022-08-05T07:08:42.708Z,101450.16
2022-08-05T07:11:15.457Z,101459.31
2022-08-05T07:14:01.619Z,101444.94
2022-08-05T07:18:02.350Z,101453.56
2022-08-05T07:22:28.504Z,101475.84
2022-08-05T07:24:59.309Z,101468.81
2022-08-05T07:27:58.852Z,101467.19
2022-08-05T07:30:23.947Z,101466.66
2022-08-05T07:32:55.655Z,101489.88
2022-08-05T07:36:03.520Z,101484.47
2022-08-05T07:38:32.803Z,101475.31
2022-08-05T07:41:16.849Z,101477.22
2022-08-05T07:43:50.554Z,101481.22
2022-08-05T07:46:24.446Z,101483.38
2022-08-05T07:49:01.973Z,101472.25
2022-08-05T07:51:37.609Z,101479.03
2022-08-05T07:54:10.549Z,101468.81
2022-08-05T07:57:02.477Z,101461.81
2022-08-05T07:59:38.271Z,101462.84
2022-08-05T08:02:10.586Z,101461.81
2022-08-05T08:04:47.407Z,101467.22
2022-08-05T08:07:15.396Z,101476.44
2022-08-05T08:09:43.624Z,101481.84
2022-08-05T08:12:37.547Z,101480.75
2022-08-05T08:15:13.823Z,101481.53
2022-08-05T08:17:46.256Z,101480.69
2022-08-05T08:20:43.383Z,101480.97
2022-08-05T08:23:07.509Z,101462.84
2022-08-05T08:25:59.898Z,101464.44
2022-08-05T08:28:37.139Z,101472.53
2022-08-05T08:31:17.333Z,101467.91
2022-08-05T08:33:45.935Z,101472.00
2022-08-05T08:36:38.939Z,101478.47
2022-08-05T08:39:15.231Z,101481.41
2022-08-05T08:41:52.563Z,101482.75
2022-08-05T08:45:18.521Z,101492.94
2022-08-05T08:48:06.356Z,101501.84
2022-08-05T08:50:31.826Z,101499.47
2022-08-05T08:53:12.455Z,101504.66
2022-08-05T08:56:04.861Z,101496.88
2022-08-05T08:58:43.523Z,101502.25
2022-08-05T09:01:19.142Z,101507.66
2022-08-05T09:03:54.386Z,101506.31
2022-08-05T09:06:32.593Z,101501.09
2022-08-05T09:09:04.684Z,101506.41
2022-08-05T09:11:53.194Z,101509.03
2022-08-05T09:14:56.816Z,101504.66
2022-08-05T09:17:40.671Z,101506.81
2022-08-05T09:20:08.353Z,101499.91
2022-08-05T09:23:09.127Z,101494.03
2022-08-05T09:26:01.504Z,101500.84
2022-08-05T09:28:32.234Z,101498.38
2022-08-05T09:31:23.483Z,101497.06
2022-08-05T09:33:54.690Z,101500.31
2022-08-05T09:36:55.106Z,101499.00
2022-08-05T09:39:39.290Z,101503.41
2022-08-05T09:42:23.517Z,101494.50
2022-08-05T09:44:57.498Z,101493.63
2022-08-05T09:47:49.115Z,101490.13
2022-08-05T09:50:43.684Z,101500.94
2022-08-05T09:53:12.065Z,101514.47
2022-08-05T09:56:03.703Z,101520.69
2022-08-05T09:58:36.935Z,101523.94
2022-08-05T10:01:15.733Z,101510.97
2022-08-05T10:04:03.559Z,101509.09
2022-08-05T10:06:32.092Z,101511.03
2022-08-05T10:09:25.101Z,101511.84
2022-08-05T10:12:30.088Z,101516.47
2022-08-05T10:15:17.212Z,101520.19
2022-08-05T10:18:03.621Z,101514.69
2022-08-05T10:20:33.089Z,101515.19
2022-08-05T10:23:02.226Z,101527.03
2022-08-05T10:25:32.699Z,101524.84
2022-08-05T10:28:13.911Z,101517.53
2022-08-05T10:32:54.908Z,101517.25
2022-08-05T10:33:36.076Z,101531.81
2022-08-05T10:36:05.876Z,101536.94
2022-08-05T10:38:37.225Z,101538.88
2022-08-05T10:41:23.275Z,101539.38
2022-08-05T10:44:02.128Z,101534.50
2022-08-05T10:46:50.563Z,101529.91
2022-08-05T10:49:26.922Z,101531.34
2022-08-05T10:52:03.315Z,101547.91
2022-08-05T10:55:03.271Z,101559.75
2022-08-05T10:57:34.125Z,101564.72
2022-08-05T11:00:19.839Z,101566.59
2022-08-05T11:03:24.981Z,101565.78
2022-08-05T11:06:21.245Z,101573.34
2022-08-05T11:09:24.408Z,101588.56
2022-08-05T11:12:54.506Z,101577.44
2022-08-05T11:15:59.465Z,101572.19
2022-08-05T11:18:29.981Z,101587.34
2022-08-05T11:20:59.630Z,101590.16
2022-08-05T11:24:05.161Z,101592.41
2022-08-05T11:26:33.284Z,101588.50
2022-08-05T11:29:11.692Z,101581.09
2022-08-05T11:31:54.138Z,101589.38
2022-08-05T11:34:50.858Z,101590.16
2022-08-05T11:38:29.525Z,101591.25
2022-08-05T11:41:01.798Z,101585.69
2022-08-05T11:44:04.575Z,101593.91
2022-08-05T11:46:58.126Z,101600.75
2022-08-05T11:49:39.385Z,101603.00
2022-08-05T11:52:11.868Z,101605.25
2022-08-05T11:54:41.804Z,101610.16
2022-08-05T11:57:24.807Z,101619.91
2022-08-05T11:59:54.198Z,101617.22
2022-08-05T12:02:33.470Z,101621.53
2022-08-05T12:05:07.101Z,101620.50
2022-08-05T12:08:07.567Z,101623.22
2022-08-05T12:10:43.037Z,101625.94
2022-08-05T12:13:28.103Z,101630.81
2022-08-05T12:16:14.879Z,101636.34
2022-08-05T12:18:49.523Z,101639.69
2022-08-05T12:21:24.305Z,101637.56
2022-08-05T12:24:11.304Z,101626.72
2022-08-05T12:26:43.979Z,101634.91
2022-08-05T12:29:16.105Z,101627.88
2022-08-05T12:31:53.821Z,101626.84
2022-08-05T12:34:31.572Z,101626.03
2022-08-05T12:37:10.485Z,101628.81
2022-08-05T12:39:39.726Z,101640.81
2022-08-05T12:42:16.680Z,101636.66
2022-08-05T12:44:47.614Z,101639.09
2022-08-05T12:47:27.257Z,101634.78
2022-08-05T12:50:03.200Z,101635.94
2022-08-05T12:52:39.396Z,101638.66
2022-08-05T12:55:22.637Z,101638.69
2022-08-05T12:58:50.751Z,101626.25
2022-08-05T13:02:00.689Z,101633.88
2022-08-05T13:03:33.155Z,101622.53
2022-08-05T13:06:02.233Z,101619.28
2022-08-05T13:08:32.439Z,101622.81
2022-08-05T13:11:01.655Z,101627.97
2022-08-05T13:14:05.756Z,101615.75
2022-08-05T13:16:19.542Z,101623.94
2022-08-05T13:18:58.390Z,101617.69
2022-08-05T13:21:38.053Z,101615.53
2022-08-05T13:24:27.699Z,101625.59
2022-08-05T13:27:04.985Z,101632.38
2022-08-05T13:29:38.388Z,101618.25
2022-08-05T13:32:39.173Z,101617.44
2022-08-05T13:35:10.227Z,101619.88
2022-08-05T13:37:37.607Z,101610.66
2022-08-05T13:40:16.210Z,101613.38
2022-08-05T13:42:55.645Z,101610.13
2022-08-05T13:45:23.136Z,101618.78
2022-08-05T13:48:09.818Z,101618.78
2022-08-05T13:50:47.773Z,101629.09
2022-08-05T13:53:15.945Z,101629.63
2022-08-05T13:55:50.259Z,101635.06
2022-08-05T13:58:31.027Z,101636.13
2022-08-05T14:00:59.677Z,101647.50
2022-08-05T14:03:28.925Z,101658.31
2022-08-05T14:06:25.949Z,101653.72
2022-08-05T14:08:43.828Z,101658.06
2022-08-05T14:11:21.038Z,101663.78
2022-08-05T14:13:49.679Z,101666.75
2022-08-05T14:16:22.813Z,101672.97
2022-08-05T14:18:52.522Z,101670.28
2022-08-05T14:22:08.114Z,101677.06
2022-08-05T14:24:12.214Z,101676.78
2022-08-05T14:26:51.479Z,101676.78
2022-08-05T14:29:27.505Z,101683.00
2022-08-05T14:32:12.374Z,101680.53
2022-08-05T14:34:45.159Z,101695.19
2022-08-05T14:37:14.104Z,101698.19
2022-08-05T14:39:49.961Z,101697.34
2022-08-05T14:42:25.000Z,101702.53
2022-08-05T14:44:52.866Z,101702.56
2022-08-05T14:48:02.442Z,101710.16
2022-08-05T14:50:18.204Z,101709.34
2022-08-05T14:52:53.467Z,101719.59
2022-08-05T14:55:25.100Z,101722.31
2022-08-05T14:57:54.552Z,101720.94
2022-08-05T15:00:27.746Z,101720.16
2022-08-05T15:02:56.307Z,101735.31
2022-08-05T15:05:29.828Z,101740.72
2022-08-05T15:08:18.054Z,101742.06
2022-08-05T15:11:03.225Z,101746.13
2022-08-05T15:13:45.862Z,101758.28
2022-08-05T15:16:14.289Z,101755.03
2022-08-05T15:18:41.940Z,101765.06
2022-08-05T15:21:15.986Z,101764.50
2022-08-05T15:23:49.052Z,101761.75
2022-08-05T15:26:17.594Z,101762.59
2022-08-05T15:28:59.885Z,101776.66
2022-08-05T15:31:34.745Z,101770.69
2022-08-05T15:34:19.025Z,101780.41
2022-08-05T15:36:51.240Z,101779.53
2022-08-05T15:40:59.541Z,101786.56
2022-08-05T15:42:54.804Z,101795.19
2022-08-05T15:44:55.015Z,101800.59
2022-08-05T15:47:23.578Z,101795.19
2022-08-05T15:49:56.950Z,101789.25
2022-08-05T15:52:51.894Z,101811.19
2022-08-05T15:55:16.570Z,101818.50
2022-08-05T15:57:44.952Z,101802.28
2022-08-05T16:00:16.688Z,101820.13
2022-08-05T16:02:44.495Z,101818.47
2022-08-05T16:05:12.144Z,101813.06
2022-08-05T16:07:46.563Z,101812.53
2022-08-05T16:10:16.495Z,101816.91
2022-08-05T16:12:51.473Z,101822.03
2022-08-05T16:15:21.689Z,101817.97
2022-08-05T16:17:57.969Z,101823.34
2022-08-05T16:20:25.639Z,101827.66
2022-08-05T16:22:57.457Z,101819.81
2022-08-05T16:25:32.167Z,101823.59
2022-08-05T16:28:05.843Z,101825.25
2022-08-05T16:30:36.131Z,101833.00
2022-08-05T16:33:04.205Z,101847.97
2022-08-05T16:35:33.535Z,101848.56
2022-08-05T16:38:23.810Z,101850.03
2022-08-05T16:40:51.668Z,101860.00
2022-08-05T16:43:24.145Z,101861.06
2022-08-05T16:46:07.178Z,101869.19
2022-08-05T16:48:40.605Z,101869.16
2022-08-05T16:51:10.215Z,101869.69
2022-08-05T16:54:04.853Z,101870.50
2022-08-05T16:56:29.744Z,101876.19
2022-08-05T16:58:57.791Z,101875.09
2022-08-05T17:01:25.422Z,101886.78
2022-08-05T17:03:52.931Z,101887.59
2022-08-05T17:06:20.869Z,101887.03
2022-08-05T17:08:54.593Z,101890.03
2022-08-05T17:11:23.765Z,101888.09
2022-08-05T17:14:00.398Z,101883.50
2022-08-05T17:16:35.971Z,101887.84
2022-08-05T17:19:07.785Z,101902.19
2022-08-05T17:21:39.694Z,101901.13
2022-08-05T17:24:28.461Z,101897.84
2022-08-05T17:26:58.530Z,101899.97
2022-08-05T17:29:33.410Z,101905.88
2022-08-05T17:32:08.449Z,101913.94
2022-08-05T17:34:39.526Z,101911.63
2022-08-05T17:37:16.903Z,101909.31
2022-08-05T17:39:56.321Z,101908.06
2022-08-05T17:42:31.897Z,101913.56
2022-08-05T17:45:09.967Z,101915.28
2022-08-05T17:47:53.439Z,101922.72
2022-08-05T17:50:28.406Z,101928.03
2022-08-05T17:52:59.515Z,101923.63
2022-08-05T17:55:37.272Z,101932.22
2022-08-05T17:58:09.907Z,101937.06
2022-08-05T18:00:40.797Z,101933.50
2022-08-05T18:03:28.081Z,101933.66
2022-08-05T18:06:04.525Z,101944.09
2022-08-05T18:08:33.328Z,101958.91
2022-08-05T18:11:03.258Z,101948.31
2022-08-05T18:13:36.937Z,101949.00
2022-08-05T18:16:13.690Z,101958.59
2022-08-05T18:18:41.678Z,101962.66
2022-08-05T18:21:20.067Z,101966.25
2022-08-05T18:23:50.155Z,101961.31
2022-08-05T18:26:28.991Z,101969.31
2022-08-05T18:28:57.945Z,101971.09
2022-08-05T18:31:33.048Z,101975.38
2022-08-05T18:34:06.138Z,101979.59
2022-08-05T18:36:35.387Z,101977.16
2022-08-05T18:39:04.020Z,101980.59
2022-08-05T18:41:53.343Z,101990.72
2022-08-05T18:44:35.032Z,101987.56
2022-08-05T18:47:14.832Z,101991.50
2022-08-05T18:50:00.531Z,101996.22
2022-08-05T18:52:36.851Z,102001.72
2022-08-05T18:55:10.611Z,102001.31
2022-08-05T18:57:43.083Z,102003.31
2022-08-05T19:00:20.626Z,102015.03
2022-08-05T19:02:48.424Z,102016.03
2022-08-05T19:06:12.179Z,102014.03
2022-08-05T19:08:07.687Z,102022.03
2022-08-05T19:10:41.049Z,102024.59
2022-08-05T19:13:12.255Z,102024.03
2022-08-05T19:15:58.350Z,102027.69
2022-08-05T19:18:28.703Z,102035.66
2022-08-05T19:20:56.640Z,102039.38
2022-08-05T19:24:07.034Z,102044.41
2022-08-05T19:26:11.904Z,102056.38
2022-08-05T19:28:44.504Z,102053.78
2022-08-05T19:31:13.767Z,102056.00
2022-08-05T19:33:48.313Z,102062.34
2022-08-05T19:36:25.158Z,102061.63
2022-08-05T19:38:55.120Z,102068.75
2022-08-05T19:41:58.504Z,102071.31
2022-08-05T19:44:18.348Z,102078.44
2022-08-05T19:46:46.443Z,102076.81
2022-08-05T19:49:17.028Z,102080.44
2022-08-05T19:52:08.710Z,102088.16
2022-08-05T19:54:34.254Z,102083.88
2022-08-05T19:57:08.441Z,102091.63
2022-08-05T20:00:00.489Z,102093.34
2022-08-05T20:02:31.446Z,102096.50
2022-08-05T20:04:59.814Z,102095.06
2022-08-05T20:07:47.528Z,102098.84
2022-08-05T20:10:15.768Z,102100.56
2022-08-05T20:12:47.910Z,102104.28
2022-08-05T20:15:48.252Z,102108.47
2022-08-05T20:18:10.709Z,102110.00
2022-08-05T20:20:56.628Z,102115.81
2022-08-05T20:23:38.768Z,102126.00
2022-08-05T20:26:16.402Z,102121.88
2022-08-05T20:28:46.057Z,102123.97
2022-08-05T20:31:16.617Z,102129.81
2022-08-05T20:33:44.986Z,102128.38
2022-08-05T20:36:14.171Z,102136.91
2022-08-05T20:38:53.628Z,102136.53
2022-08-05T20:41:24.127Z,102146.13
2022-08-05T20:43:59.824Z,102137.22
2022-08-05T20:46:31.810Z,102140.75
2022-08-05T20:48:59.222Z,102140.75
2022-08-05T20:51:26.855Z,102143.19
2022-08-05T20:53:56.760Z,102145.88
2022-08-05T20:56:29.956Z,102149.00
2022-08-05T20:59:11.275Z,102153.78
2022-08-05T21:01:44.853Z,102161.50
2022-08-05T21:04:12.553Z,102164.41
2022-08-05T21:06:45.024Z,102170.22
2022-08-05T21:09:14.285Z,102172.75
2022-08-05T21:12:06.952Z,102176.91
2022-08-05T21:14:34.785Z,102182.13
2022-08-05T21:17:05.267Z,102181.09
2022-08-05T21:19:47.122Z,102183.78
2022-08-05T21:22:17.763Z,102191.44
2022-08-05T21:24:51.965Z,102184.88
2022-08-05T21:27:24.634Z,102194.19
2022-08-05T21:29:52.288Z,102191.94
2022-08-05T21:32:24.542Z,102198.16
2022-08-05T21:35:08.906Z,102197.31
2022-08-05T21:37:47.245Z,102198.38
2022-08-05T21:40:21.848Z,102197.31
2022-08-05T21:42:51.946Z,102198.97
2022-08-05T21:45:24.989Z,102195.25
2022-08-05T21:48:09.329Z,102205.19
2022-08-05T21:50:37.328Z,102202.34
2022-08-05T21:53:16.466Z,102202.41
2022-08-05T21:56:06.211Z,102205.94
2022-08-05T21:58:33.071Z,102199.63
2022-08-05T22:01:00.739Z,102209.97
2022-08-05T22:03:52.630Z,102205.03
2022-08-05T22:06:22.769Z,102202.41
2022-08-05T22:08:52.151Z,102208.19
2022-08-05T22:11:35.054Z,102201.41
2022-08-05T22:14:18.238Z,102208.84
2022-08-05T22:16:53.036Z,102201.69
2022-08-05T22:20:01.661Z,102210.13
2022-08-05T22:22:13.070Z,102208.09
2022-08-05T22:25:00.613Z,102214.91
2022-08-05T22:28:08.359Z,102212.63
2022-08-05T22:30:35.186Z,102216.38
2022-08-05T22:33:03.925Z,102217.41
2022-08-05T22:35:49.139Z,102223.00
2022-08-05T22:38:17.011Z,102224.25
2022-08-05T22:40:49.604Z,102227.97
2022-08-05T22:43:37.451Z,102226.75
2022-08-05T22:46:13.110Z,102223.91
2022-08-05T22:48:42.077Z,102211.97
2022-08-05T22:51:16.116Z,102212.81
2022-08-05T22:53:50.455Z,102215.75
2022-08-05T22:56:30.010Z,102223.41
2022-08-05T22:59:00.093Z,102228.59
2022-08-05T23:02:04.756Z,102231.31
2022-08-05T23:04:18.755Z,102238.94
2022-08-05T23:06:48.112Z,102242.69
2022-08-05T23:09:27.652Z,102243.09
2022-08-05T23:12:03.639Z,102238.97
2022-08-05T23:14:32.283Z,102242.72
2022-08-05T23:17:24.485Z,102244.34
2022-08-05T23:20:02.605Z,102254.66
2022-08-05T23:22:31.412Z,102250.50
2022-08-05T23:25:00.500Z,102250.06
2022-08-05T23:27:28.824Z,102259.94
2022-08-05T23:30:11.109Z,102258.69
2022-08-05T23:32:45.132Z,102256.25
2022-08-05T23:35:12.930Z,102260.38
2022-08-05T23:37:41.958Z,102258.34
2022-08-05T23:40:11.722Z,102258.16
2022-08-05T23:42:39.162Z,102257.13
2022-08-05T23:45:15.879Z,102268.28
2022-08-05T23:47:47.954Z,102265.41
2022-08-05T23:50:17.072Z,102265.81
2022-08-05T23:52:51.564Z,102275.28
2022-08-05T23:55:21.371Z,102281.09
2022-08-05T23:57:52.753Z,102279.84
